createdAt,value
2019-03-31T00:02:26.280Z,9.93
2019-03-31T00:04:54.322Z,10.50
2019-03-31T00:07:22.298Z,7.73
2019-03-31T00:09:50.434Z,7.00
2019-03-31T00:12:18.378Z,8.30
2019-03-31T00:14:46.682Z,9.03
2019-03-31T00:17:14.780Z,7.00
2019-03-31T00:19:42.716Z,9.37
2019-03-31T00:22:12.034Z,8.80
2019-03-31T00:24:40.070Z,8.80
2019-03-31T00:27:08.015Z,8.27
2019-03-31T00:29:35.999Z,10.00
2019-03-31T00:32:04.081Z,7.90
2019-03-31T00:34:32.073Z,5.30
2019-03-31T00:37:01.887Z,8.07
2019-03-31T00:39:29.930Z,9.90
2019-03-31T00:41:57.859Z,7.97
2019-03-31T00:44:25.967Z,10.40
2019-03-31T00:46:53.948Z,9.10
2019-03-31T00:49:23.034Z,7.60
2019-03-31T00:51:51.019Z,8.40
2019-03-31T00:54:18.951Z,5.80
2019-03-31T00:56:47.088Z,11.13
2019-03-31T00:59:15.206Z,14.33
2019-03-31T01:01:52.506Z,4.87
2019-03-31T01:04:24.994Z,6.40
2019-03-31T01:06:53.687Z,5.00
2019-03-31T01:09:26.447Z,6.17
2019-03-31T01:11:55.154Z,6.07
2019-03-31T01:14:23.729Z,10.23
2019-03-31T01:16:53.396Z,7.60
2019-03-31T01:19:22.153Z,6.97
2019-03-31T01:21:50.182Z,6.50
2019-03-31T01:24:19.865Z,6.10
2019-03-31T01:26:47.793Z,7.43
2019-03-31T01:29:16.334Z,11.10
2019-03-31T01:31:50.672Z,8.40
2019-03-31T01:34:14.354Z,5.83
2019-03-31T01:36:42.398Z,5.97
2019-03-31T01:39:10.373Z,6.87
2019-03-31T01:41:38.500Z,10.57
2019-03-31T01:44:06.428Z,8.83
2019-03-31T01:46:34.414Z,5.80
2019-03-31T01:49:02.338Z,7.23
2019-03-31T01:51:30.286Z,5.60
2019-03-31T01:53:58.694Z,5.60
2019-03-31T01:56:26.729Z,7.73
2019-03-31T01:58:54.769Z,6.13
2019-03-31T02:01:22.759Z,5.03
2019-03-31T02:03:50.806Z,6.53
2019-03-31T02:06:20.533Z,6.90
2019-03-31T02:08:48.560Z,6.63
2019-03-31T02:11:16.493Z,6.00
2019-03-31T02:13:44.434Z,7.60
2019-03-31T02:16:13.505Z,5.00
2019-03-31T02:18:41.611Z,4.77
2019-03-31T02:21:09.655Z,5.40
2019-03-31T02:23:37.736Z,4.83
2019-03-31T02:26:05.920Z,6.80
2019-03-31T02:28:34.054Z,6.07
2019-03-31T02:31:02.042Z,5.37
2019-03-31T02:33:30.379Z,6.90
2019-03-31T02:35:58.406Z,6.50
2019-03-31T02:38:26.831Z,7.20
2019-03-31T02:40:55.012Z,6.53
2019-03-31T02:43:23.247Z,5.30
2019-03-31T02:45:51.252Z,5.93
2019-03-31T02:48:19.303Z,6.13
2019-03-31T02:50:51.942Z,4.67
2019-03-31T02:53:20.595Z,4.20
2019-03-31T02:55:48.842Z,3.90
2019-03-31T02:58:17.494Z,4.40
2019-03-31T03:00:45.768Z,4.87
2019-03-31T03:03:15.874Z,4.10
2019-03-31T03:05:44.516Z,4.57
2019-03-31T03:08:13.659Z,4.67
2019-03-31T03:10:43.636Z,4.13
2019-03-31T03:13:13.637Z,4.43
2019-03-31T03:16:27.073Z,3.90
2019-03-31T03:18:55.516Z,5.80
2019-03-31T03:21:24.933Z,3.70
2019-03-31T03:23:53.806Z,4.07
2019-03-31T03:26:22.043Z,4.00
2019-03-31T03:28:50.345Z,4.03
2019-03-31T03:31:19.009Z,5.60
2019-03-31T03:33:47.411Z,5.50
2019-03-31T03:36:15.564Z,3.97
2019-03-31T03:38:44.256Z,4.30
2019-03-31T03:41:12.210Z,5.07
2019-03-31T03:43:53.978Z,5.63
2019-03-31T03:46:10.227Z,5.37
2019-03-31T03:48:38.159Z,5.67
2019-03-31T03:51:06.187Z,4.60
2019-03-31T03:53:34.293Z,4.70
2019-03-31T03:56:02.443Z,5.60
2019-03-31T03:58:30.484Z,3.67
2019-03-31T04:00:58.675Z,4.50
2019-03-31T04:03:30.346Z,5.60
2019-03-31T04:05:58.140Z,4.27
2019-03-31T04:08:26.148Z,4.57
2019-03-31T04:11:13.570Z,3.80
2019-03-31T04:13:41.647Z,4.90
2019-03-31T04:16:09.828Z,4.27
2019-03-31T04:18:38.571Z,3.63
2019-03-31T04:21:06.998Z,3.60
2019-03-31T04:23:34.936Z,6.00
2019-03-31T04:26:02.983Z,4.80
2019-03-31T04:28:30.964Z,5.40
2019-03-31T04:30:58.807Z,4.10
2019-03-31T04:33:26.749Z,3.77
2019-03-31T04:35:55.003Z,4.30
2019-03-31T04:38:23.043Z,3.60
2019-03-31T04:40:50.991Z,4.43
2019-03-31T04:43:18.964Z,7.27
2019-03-31T04:45:46.909Z,4.53
2019-03-31T04:48:14.947Z,4.03
2019-03-31T04:50:43.291Z,5.10
2019-03-31T04:53:11.230Z,4.77
2019-03-31T04:55:39.156Z,3.63
2019-03-31T04:58:07.310Z,7.07
2019-03-31T05:00:35.264Z,7.13
2019-03-31T05:03:03.308Z,7.83
2019-03-31T05:05:31.442Z,7.00
2019-03-31T05:07:59.377Z,6.13
2019-03-31T05:10:27.322Z,6.23
2019-03-31T05:12:55.354Z,3.67
2019-03-31T05:15:25.094Z,4.60
2019-03-31T05:17:53.366Z,5.33
2019-03-31T05:20:22.762Z,4.40
2019-03-31T05:22:52.891Z,4.70
2019-03-31T05:25:20.569Z,5.40
2019-03-31T05:27:48.732Z,6.23
2019-03-31T05:30:18.502Z,4.10
2019-03-31T05:32:46.544Z,3.87
2019-03-31T05:35:14.510Z,3.87
2019-03-31T05:37:50.944Z,3.53
2019-03-31T05:40:12.414Z,3.63
2019-03-31T05:42:40.410Z,5.03
2019-03-31T05:45:10.162Z,5.53
2019-03-31T05:47:38.209Z,5.10
2019-03-31T05:50:06.494Z,4.60
2019-03-31T05:52:34.417Z,3.60
2019-03-31T05:55:02.451Z,4.50
2019-03-31T05:57:32.272Z,4.17
2019-03-31T06:00:00.526Z,4.70
2019-03-31T06:02:28.563Z,4.73
2019-03-31T06:04:56.547Z,4.37
2019-03-31T06:07:24.579Z,5.20
2019-03-31T06:09:52.520Z,5.80
2019-03-31T06:12:20.864Z,4.57
2019-03-31T06:14:48.906Z,4.00
2019-03-31T06:17:17.227Z,4.67
2019-03-31T06:19:45.911Z,4.43
2019-03-31T06:22:13.845Z,7.27
2019-03-31T06:24:41.892Z,11.00
2019-03-31T06:27:09.878Z,4.90
2019-03-31T06:29:37.964Z,4.33
2019-03-31T06:32:06.001Z,6.47
2019-03-31T06:34:46.695Z,5.90
2019-03-31T06:37:05.050Z,6.27
2019-03-31T06:39:34.383Z,5.83
2019-03-31T06:42:02.427Z,6.13
2019-03-31T06:44:30.522Z,4.87
2019-03-31T06:46:58.579Z,5.40
2019-03-31T06:49:26.530Z,6.20
2019-03-31T06:51:54.462Z,8.47
2019-03-31T06:54:22.553Z,4.70
2019-03-31T06:56:50.565Z,4.03
2019-03-31T06:59:18.509Z,4.70
2019-03-31T07:01:46.463Z,4.93
2019-03-31T07:04:14.558Z,6.00
2019-03-31T07:06:43.798Z,4.67
2019-03-31T07:09:11.745Z,7.90
2019-03-31T07:11:39.732Z,7.17
2019-03-31T07:14:10.614Z,8.93
2019-03-31T07:16:38.734Z,6.13
2019-03-31T07:19:07.221Z,6.50
2019-03-31T07:21:35.158Z,4.20
2019-03-31T07:24:03.091Z,6.40
2019-03-31T07:26:31.103Z,6.73
2019-03-31T07:28:59.158Z,4.57
2019-03-31T07:31:27.106Z,4.57
2019-03-31T07:33:55.166Z,4.63
2019-03-31T07:36:23.016Z,4.80
2019-03-31T07:38:51.161Z,4.70
2019-03-31T07:41:19.312Z,5.00
2019-03-31T07:43:47.204Z,6.40
2019-03-31T07:46:15.251Z,7.13
2019-03-31T07:48:43.214Z,5.40
2019-03-31T07:51:11.164Z,4.70
2019-03-31T07:53:39.198Z,6.60
2019-03-31T07:56:07.303Z,5.70
2019-03-31T07:58:35.342Z,5.90
2019-03-31T08:01:03.377Z,5.00
2019-03-31T08:03:31.389Z,4.97
2019-03-31T08:05:59.435Z,5.33
2019-03-31T08:08:27.361Z,4.60
2019-03-31T08:10:55.466Z,4.90
2019-03-31T08:13:23.502Z,6.50
2019-03-31T08:15:51.434Z,5.07
2019-03-31T08:18:19.710Z,6.60
2019-03-31T08:20:48.207Z,6.87
2019-03-31T08:23:17.339Z,6.00
2019-03-31T08:25:45.340Z,5.70
2019-03-31T08:28:13.444Z,5.53
2019-03-31T08:30:41.323Z,5.93
2019-03-31T08:33:11.233Z,6.30
2019-03-31T08:35:47.332Z,4.53
2019-03-31T08:38:08.919Z,5.80
2019-03-31T08:40:36.899Z,4.90
2019-03-31T08:43:06.061Z,6.40
2019-03-31T08:45:34.038Z,7.03
2019-03-31T08:48:02.138Z,4.87
2019-03-31T08:50:30.097Z,7.40
2019-03-31T08:52:58.270Z,5.60
2019-03-31T08:55:26.528Z,5.13
2019-03-31T08:57:56.011Z,4.70
2019-03-31T09:00:58.617Z,4.83
2019-03-31T09:03:26.554Z,6.97
2019-03-31T09:06:01.837Z,5.70
2019-03-31T09:08:24.387Z,6.87
2019-03-31T09:10:52.426Z,7.10
2019-03-31T09:13:20.366Z,6.50
2019-03-31T09:15:49.454Z,6.30
2019-03-31T09:18:17.966Z,8.03
2019-03-31T09:20:47.198Z,7.70
2019-03-31T09:23:15.179Z,13.43
2019-03-31T09:25:43.135Z,4.43
2019-03-31T09:28:11.382Z,7.43
2019-03-31T09:30:41.313Z,6.83
2019-03-31T09:33:09.353Z,8.20
2019-03-31T09:35:37.404Z,8.60
2019-03-31T09:38:05.475Z,8.30
2019-03-31T09:40:33.513Z,15.93
2019-03-31T09:43:01.482Z,11.57
2019-03-31T09:45:29.855Z,9.17
2019-03-31T09:47:57.897Z,9.80
2019-03-31T09:50:25.834Z,8.77
2019-03-31T09:52:54.096Z,10.73
2019-03-31T09:55:23.211Z,8.60
2019-03-31T09:57:53.110Z,11.90
2019-03-31T10:00:36.122Z,11.97
2019-03-31T10:03:05.268Z,13.17
2019-03-31T10:05:33.210Z,13.50
2019-03-31T10:08:01.286Z,14.00
2019-03-31T10:10:31.963Z,14.93
2019-03-31T10:13:00.265Z,13.43
2019-03-31T10:15:28.582Z,18.83
2019-03-31T10:17:56.776Z,31.70
2019-03-31T10:20:24.736Z,22.57
2019-03-31T10:22:52.814Z,17.17
2019-03-31T10:25:20.755Z,19.87
2019-03-31T10:27:48.897Z,18.67
2019-03-31T10:30:23.278Z,17.33
2019-03-31T10:32:51.313Z,21.23
2019-03-31T10:35:19.153Z,20.67
2019-03-31T10:37:47.171Z,20.43
2019-03-31T10:40:15.520Z,24.27
2019-03-31T10:42:43.561Z,21.40
2019-03-31T10:45:11.943Z,21.03
2019-03-31T10:47:39.977Z,17.60
2019-03-31T10:50:08.214Z,19.93
2019-03-31T10:52:36.329Z,20.97
2019-03-31T10:55:05.495Z,18.60
2019-03-31T10:57:33.458Z,21.50
2019-03-31T11:00:01.734Z,20.60
2019-03-31T11:02:29.715Z,24.73
2019-03-31T11:04:57.665Z,18.20
2019-03-31T11:07:25.750Z,19.00
2019-03-31T11:09:53.704Z,18.90
2019-03-31T11:12:23.448Z,21.03
2019-03-31T11:14:51.434Z,22.10
2019-03-31T11:17:19.384Z,21.37
2019-03-31T11:19:48.377Z,20.53
2019-03-31T11:22:42.755Z,17.93
2019-03-31T11:25:20.754Z,19.23
2019-03-31T11:27:43.816Z,17.40
2019-03-31T11:30:12.507Z,19.77
2019-03-31T11:32:40.489Z,20.73
2019-03-31T11:35:08.432Z,19.87
2019-03-31T11:37:36.375Z,20.37
2019-03-31T11:40:05.716Z,20.23
2019-03-31T11:42:33.752Z,16.83
2019-03-31T11:45:01.806Z,23.13
2019-03-31T11:47:29.771Z,21.50
2019-03-31T11:49:57.697Z,20.50
2019-03-31T11:52:25.736Z,19.20
2019-03-31T11:54:53.888Z,21.80
2019-03-31T11:57:21.860Z,23.47
2019-03-31T11:59:51.688Z,21.03
2019-03-31T12:02:26.936Z,18.70
2019-03-31T12:04:51.523Z,21.07
2019-03-31T12:07:28.228Z,19.87
2019-03-31T12:09:51.594Z,24.33
2019-03-31T12:12:19.529Z,19.00
2019-03-31T12:14:59.909Z,20.07
2019-03-31T12:17:17.274Z,24.27
2019-03-31T12:19:48.700Z,20.13
2019-03-31T12:22:16.160Z,17.90
2019-03-31T12:24:44.117Z,21.03
2019-03-31T12:27:12.488Z,19.67
2019-03-31T12:29:40.531Z,17.43
2019-03-31T12:32:08.592Z,16.20
2019-03-31T12:34:36.824Z,17.93
2019-03-31T12:37:04.764Z,18.37
2019-03-31T12:39:32.804Z,14.73
2019-03-31T12:42:01.160Z,13.47
2019-03-31T12:44:29.112Z,19.23
2019-03-31T12:46:57.045Z,15.97
2019-03-31T12:49:25.289Z,16.90
2019-03-31T12:51:55.097Z,18.87
2019-03-31T12:54:22.968Z,16.30
2019-03-31T12:56:50.995Z,18.40
2019-03-31T12:59:20.144Z,16.33
2019-03-31T13:01:48.112Z,15.90
2019-03-31T13:04:17.096Z,14.40
2019-03-31T13:06:45.272Z,18.50
2019-03-31T13:09:13.308Z,13.50
2019-03-31T13:11:42.383Z,14.90
2019-03-31T13:14:10.340Z,15.30
2019-03-31T13:16:38.293Z,14.10
2019-03-31T13:19:06.486Z,16.77
2019-03-31T13:21:35.013Z,15.17
2019-03-31T13:24:03.181Z,18.07
2019-03-31T13:26:31.192Z,18.27
2019-03-31T13:28:59.235Z,23.93
2019-03-31T13:31:27.178Z,15.57
2019-03-31T13:33:55.377Z,15.63
2019-03-31T13:36:23.312Z,15.50
2019-03-31T13:38:53.044Z,14.77
2019-03-31T13:41:22.835Z,15.97
2019-03-31T13:43:50.875Z,15.03
2019-03-31T13:46:18.933Z,18.70
2019-03-31T13:48:46.893Z,14.20
2019-03-31T13:51:15.040Z,16.43
2019-03-31T13:53:43.090Z,14.70
2019-03-31T13:56:11.494Z,15.30
2019-03-31T13:58:41.540Z,14.60
2019-03-31T14:01:09.506Z,14.83
2019-03-31T14:03:37.490Z,16.80
2019-03-31T14:06:07.241Z,15.50
2019-03-31T14:08:35.183Z,11.87
2019-03-31T14:11:03.954Z,12.03
2019-03-31T14:13:33.586Z,12.77
2019-03-31T14:16:01.558Z,11.90
2019-03-31T14:18:29.636Z,15.87
2019-03-31T14:20:57.856Z,14.80
2019-03-31T14:23:26.476Z,13.20
2019-03-31T14:25:54.657Z,14.40
2019-03-31T14:28:22.698Z,15.40
2019-03-31T14:30:50.654Z,11.80
2019-03-31T14:33:18.802Z,14.10
2019-03-31T14:35:46.746Z,13.70
2019-03-31T14:38:14.899Z,14.80
2019-03-31T14:40:42.910Z,15.93
2019-03-31T14:43:10.878Z,11.80
2019-03-31T14:45:40.626Z,12.03
2019-03-31T14:48:09.836Z,12.20
2019-03-31T14:50:38.728Z,13.30
2019-03-31T14:53:07.284Z,15.07
2019-03-31T14:55:35.437Z,14.63
2019-03-31T14:58:03.608Z,14.30
2019-03-31T15:00:31.750Z,11.50
2019-03-31T15:02:59.967Z,11.83
2019-03-31T15:05:28.002Z,12.30
2019-03-31T15:07:58.609Z,13.97
2019-03-31T15:10:27.219Z,13.60
2019-03-31T15:12:55.162Z,13.03
2019-03-31T15:15:23.199Z,11.10
2019-03-31T15:17:51.486Z,11.80
2019-03-31T15:20:19.745Z,10.63
2019-03-31T15:22:51.258Z,12.70
2019-03-31T15:25:17.827Z,12.77
2019-03-31T15:27:45.867Z,11.13
2019-03-31T15:30:14.137Z,10.57
2019-03-31T15:32:42.214Z,12.30
2019-03-31T15:35:10.278Z,13.87
2019-03-31T15:37:38.210Z,9.80
2019-03-31T15:40:06.498Z,10.90
2019-03-31T15:42:34.465Z,12.53
2019-03-31T15:45:02.426Z,10.47
2019-03-31T15:47:30.426Z,12.33
2019-03-31T15:49:58.382Z,10.30
2019-03-31T15:52:26.427Z,10.37
2019-03-31T15:54:54.560Z,14.23
2019-03-31T15:57:22.514Z,16.73
2019-03-31T15:59:49.465Z,15.00
2019-03-31T16:02:18.154Z,12.73
2019-03-31T16:04:46.182Z,15.63
2019-03-31T16:07:15.338Z,16.50
2019-03-31T16:09:42.816Z,14.13
2019-03-31T16:12:10.212Z,20.53
2019-03-31T16:14:37.594Z,15.10
2019-03-31T16:17:05.254Z,15.23
2019-03-31T16:19:32.657Z,15.30
2019-03-31T16:22:00.148Z,14.90
2019-03-31T16:24:37.489Z,14.10
2019-03-31T16:27:04.902Z,12.43
2019-03-31T16:29:32.291Z,11.67
2019-03-31T16:31:59.986Z,13.27
2019-03-31T16:34:27.428Z,13.20
2019-03-31T16:36:54.810Z,14.77
2019-03-31T16:39:22.261Z,12.90
2019-03-31T16:41:49.665Z,14.17
2019-03-31T16:44:17.086Z,13.50
2019-03-31T16:46:44.543Z,12.90
2019-03-31T16:49:11.954Z,15.13
2019-03-31T16:51:40.446Z,58.53
2019-03-31T16:54:08.164Z,99.73
2019-03-31T16:56:35.614Z,31.57
2019-03-31T16:59:04.727Z,22.37
2019-03-31T17:01:32.310Z,13.50
2019-03-31T17:03:59.690Z,18.03
2019-03-31T17:06:27.096Z,19.63
2019-03-31T17:08:54.540Z,19.13
2019-03-31T17:11:21.922Z,13.87
2019-03-31T17:13:49.331Z,18.93
2019-03-31T17:16:16.866Z,18.70
2019-03-31T17:18:44.270Z,12.50
2019-03-31T17:21:12.469Z,20.00
2019-03-31T17:23:40.366Z,17.57
2019-03-31T17:26:07.755Z,19.03
2019-03-31T17:28:35.162Z,31.33
2019-03-31T17:31:02.753Z,14.63
2019-03-31T17:33:30.371Z,50.30
2019-03-31T17:35:57.843Z,22.00
2019-03-31T17:38:26.614Z,27.27
2019-03-31T17:40:54.012Z,33.23
2019-03-31T17:43:21.403Z,19.97
2019-03-31T17:45:48.839Z,15.47
2019-03-31T17:48:16.235Z,11.27
2019-03-31T17:50:43.620Z,16.10
2019-03-31T17:53:11.466Z,11.20
2019-03-31T17:55:38.854Z,11.67
2019-03-31T17:58:06.250Z,11.70
2019-03-31T18:00:33.851Z,13.03
2019-03-31T18:03:01.242Z,16.97
2019-03-31T18:05:28.641Z,17.07
2019-03-31T18:07:56.230Z,15.33
2019-03-31T18:10:23.638Z,15.47
2019-03-31T18:12:51.039Z,14.50
2019-03-31T18:15:18.487Z,11.53
2019-03-31T18:17:45.884Z,16.43
2019-03-31T18:20:13.294Z,11.27
2019-03-31T18:22:40.899Z,14.53
2019-03-31T18:25:09.027Z,14.90
2019-03-31T18:27:36.426Z,13.57
2019-03-31T18:30:05.673Z,15.60
2019-03-31T18:32:33.065Z,13.17
2019-03-31T18:35:00.592Z,17.70
2019-03-31T18:37:28.034Z,18.03
2019-03-31T18:39:57.258Z,14.97
2019-03-31T18:42:24.674Z,22.30
2019-03-31T18:44:52.140Z,20.90
2019-03-31T18:47:19.563Z,25.60
2019-03-31T18:49:47.111Z,17.37
2019-03-31T18:52:14.650Z,20.97
2019-03-31T18:55:10.995Z,22.47
2019-03-31T18:57:57.950Z,17.00
2019-03-31T19:00:43.938Z,17.93
2019-03-31T19:03:36.933Z,17.67
2019-03-31T19:06:32.916Z,15.40
2019-03-31T19:09:34.838Z,12.30
2019-03-31T19:12:21.160Z,11.57
2019-03-31T19:15:08.044Z,10.53
2019-03-31T19:17:55.150Z,11.70
2019-03-31T19:20:31.284Z,9.17
2019-03-31T19:23:19.089Z,8.73
2019-03-31T19:26:17.851Z,12.80
2019-03-31T19:29:03.636Z,12.50
2019-03-31T19:31:53.635Z,11.40
2019-03-31T19:34:43.439Z,10.97
2019-03-31T19:37:18.265Z,11.93
2019-03-31T19:40:11.155Z,15.50
2019-03-31T19:42:58.264Z,12.00
2019-03-31T19:45:55.702Z,9.50
2019-03-31T19:48:36.502Z,12.13
2019-03-31T19:51:22.020Z,11.13
2019-03-31T19:54:02.922Z,18.33
2019-03-31T19:56:43.265Z,13.90
2019-03-31T19:59:27.208Z,13.00
2019-03-31T20:02:25.266Z,9.70
2019-03-31T20:05:21.009Z,11.77
2019-03-31T20:08:04.697Z,15.50
2019-03-31T20:10:52.015Z,16.10
2019-03-31T20:13:35.882Z,12.57
2019-03-31T20:16:15.183Z,12.30
2019-03-31T20:18:53.897Z,12.63
2019-03-31T20:21:41.572Z,15.07
2019-03-31T20:24:16.670Z,9.77
2019-03-31T20:27:07.305Z,13.00
2019-03-31T20:30:01.755Z,13.13
2019-03-31T20:32:54.774Z,10.83
2019-03-31T20:35:47.534Z,9.53
2019-03-31T20:38:21.869Z,10.13
2019-03-31T20:41:08.784Z,11.47
2019-03-31T20:43:43.128Z,9.03
2019-03-31T20:46:10.521Z,9.43
2019-03-31T20:48:37.918Z,9.60
2019-03-31T20:51:06.052Z,9.73
2019-03-31T20:53:33.447Z,9.10
2019-03-31T20:56:00.862Z,11.33
2019-03-31T20:58:28.297Z,10.27
2019-03-31T21:00:55.692Z,10.80
2019-03-31T21:03:24.838Z,10.50
2019-03-31T21:05:52.298Z,10.60
2019-03-31T21:08:19.705Z,15.30
2019-03-31T21:10:47.107Z,11.67
2019-03-31T21:13:14.512Z,9.03
2019-03-31T21:15:41.915Z,6.87
2019-03-31T21:18:09.294Z,11.77
2019-03-31T21:20:36.782Z,9.83
2019-03-31T21:23:04.412Z,10.37
2019-03-31T21:25:32.506Z,12.53
2019-03-31T21:28:00.131Z,12.93
2019-03-31T21:30:27.527Z,10.30
2019-03-31T21:32:54.915Z,14.10
2019-03-31T21:35:22.738Z,14.47
2019-03-31T21:37:50.285Z,12.03
2019-03-31T21:40:17.656Z,10.43
2019-03-31T21:42:45.217Z,8.97
2019-03-31T21:45:12.603Z,9.60
2019-03-31T21:47:40.012Z,10.40
2019-03-31T21:50:08.171Z,11.30
2019-03-31T21:52:35.560Z,10.57
2019-03-31T21:55:03.067Z,11.30
2019-03-31T21:57:30.612Z,9.90
2019-03-31T21:59:58.001Z,9.37
2019-03-31T22:02:25.369Z,9.53
2019-03-31T22:04:52.819Z,13.20
2019-03-31T22:07:20.208Z,10.40
2019-03-31T22:09:47.603Z,10.23
2019-03-31T22:12:15.074Z,13.00
2019-03-31T22:14:42.472Z,17.90
2019-03-31T22:17:09.872Z,10.20
2019-03-31T22:19:37.329Z,10.40
2019-03-31T22:22:04.895Z,8.00
2019-03-31T22:24:32.520Z,7.57
2019-03-31T22:26:59.949Z,8.77
2019-03-31T22:29:27.361Z,8.50
2019-03-31T22:31:54.755Z,12.00
2019-03-31T22:34:22.445Z,15.53
2019-03-31T22:36:49.839Z,9.97
2019-03-31T22:39:17.231Z,13.13
2019-03-31T22:41:44.666Z,9.90
2019-03-31T22:44:12.054Z,8.97
2019-03-31T22:46:53.442Z,11.13
2019-03-31T22:49:08.694Z,12.03
2019-03-31T22:51:36.148Z,12.80
2019-03-31T22:54:03.448Z,11.53
2019-03-31T22:56:31.022Z,12.23
2019-03-31T22:58:58.424Z,8.27
2019-03-31T23:01:25.864Z,12.27
2019-03-31T23:03:53.283Z,10.70
2019-03-31T23:06:20.678Z,8.37
2019-03-31T23:08:48.076Z,11.07
2019-03-31T23:11:16.688Z,12.43
2019-03-31T23:13:44.064Z,10.10
2019-03-31T23:16:11.449Z,17.13
2019-03-31T23:18:39.110Z,12.43
2019-03-31T23:21:06.499Z,11.70
2019-03-31T23:23:34.256Z,11.63
2019-03-31T23:26:02.019Z,14.20
2019-03-31T23:28:29.435Z,11.40
2019-03-31T23:30:56.823Z,10.23
2019-03-31T23:33:24.267Z,8.73
2019-03-31T23:35:51.659Z,14.90
2019-03-31T23:38:19.057Z,16.67
2019-03-31T23:40:46.483Z,11.37
2019-03-31T23:43:13.883Z,12.77
2019-03-31T23:45:41.303Z,13.20
2019-03-31T23:48:08.855Z,11.10
2019-03-31T23:50:36.243Z,12.50
2019-03-31T23:53:03.635Z,11.80
2019-03-31T23:55:31.088Z,11.87
2019-03-31T23:57:58.499Z,11.03
